Time;durP1;ratioP1;P1;durP2;ratioP2;P2;SDS_P1;SDS_P2;PMS_P1;PMS_P2;Temp;Humidity;BMP_temperature;BMP_pressure;BME280_temperature;BME280_humidity;BME280_pressure;Samples;Min_cycle;Max_cycle;Signal;HPM_P1;HPM_P2
2021/12/18 00:00:00;;;;;;;12.55;7.72;;;;;;;6.55;72.76;101717.91;4847433;29;20068;-91
2021/12/18 00:02:40;;;;;;;11.93;7.78;;;;;;;6.43;72.79;101707.38;4872592;29;20030;-91
2021/12/18 00:05:11;;;;;;;11.05;7.68;;;;;;;6.69;72.73;101743.34;4840944;29;20037;-90
2021/12/18 00:07:56;;;;;;;10.02;7.25;;;;;;;6.77;72.63;101764.75;4832749;29;20411;-90
2021/12/18 00:10:26;;;;;;;10.18;7.20;;;;;;;6.53;72.78;101731.66;4862262;29;20064;-90
2021/12/18 00:12:56;;;;;;;11.52;7.32;;;;;;;6.55;72.67;101744.75;4828004;29;20095;-91
2021/12/18 00:15:24;;;;;;;10.80;7.10;;;;;;;6.57;72.70;101750.09;4844665;29;20131;-91
2021/12/18 00:17:51;;;;;;;11.02;7.45;;;;;;;6.49;72.49;101742.53;4841359;29;20033;-91
2021/12/18 00:20:44;;;;;;;11.10;7.70;;;;;;;6.76;72.96;101783.72;4825418;29;20044;-90
2021/12/18 00:23:12;;;;;;;10.45;6.85;;;;;;;6.72;72.74;101788.63;4841380;29;20041;-90
2021/12/18 00:25:41;;;;;;;11.55;7.18;;;;;;;6.73;72.53;101794.72;4831343;29;20389;-91
2021/12/18 00:28:08;;;;;;;10.32;7.05;;;;;;;6.75;72.63;101782.78;4855535;29;20089;-92
2021/12/18 00:31:00;;;;;;;11.98;7.63;;;;;;;6.75;72.63;101793.16;4829189;29;20038;-91
2021/12/18 00:33:28;;;;;;;11.38;7.20;;;;;;;6.53;72.64;101746.31;4852422;29;20091;-89
2021/12/18 00:36:15;;;;;;;11.20;7.53;;;;;;;6.54;72.89;101753.34;4835932;29;20044;-91
2021/12/18 00:38:51;;;;;;;10.43;7.55;;;;;;;6.36;72.68;101716.31;4851630;29;20241;-91
2021/12/18 00:44:04;;;;;;;10.13;6.80;;;;;;;6.71;72.71;101778.16;4848002;29;20027;-93
2021/12/18 00:46:41;;;;;;;9.98;6.70;;;;;;;6.25;72.58;101689.47;4823437;29;20040;-91
2021/12/18 00:49:16;;;;;;;12.05;7.68;;;;;;;6.54;72.61;101740.38;4831099;29;20413;-91
2021/12/18 00:51:44;;;;;;;11.38;7.40;;;;;;;6.71;72.82;101773.84;4834558;29;20033;-90
2021/12/18 00:54:24;;;;;;;10.85;6.97;;;;;;;6.57;72.79;101752.69;4844035;29;20066;-91
2021/12/18 00:56:50;;;;;;;10.18;6.55;;;;;;;6.53;72.71;101736.84;4835757;29;20042;-90
2021/12/18 00:59:24;;;;;;;10.40;7.25;;;;;;;6.49;72.60;101714.00;4862020;29;20579;-90
2021/12/18 01:01:51;;;;;;;11.77;7.38;;;;;;;6.53;72.63;101747.22;4831527;29;20029;-91
2021/12/18 01:04:17;;;;;;;10.05;6.78;;;;;;;6.25;72.53;101683.38;4859758;29;20033;-91
2021/12/18 01:06:46;;;;;;;11.77;7.28;;;;;;;6.45;72.74;101726.59;4829321;29;20041;-91
2021/12/18 01:09:14;;;;;;;9.60;6.75;;;;;;;6.66;72.77;101761.25;4841562;29;20044;-90
2021/12/18 01:11:44;;;;;;;9.10;6.68;;;;;;;6.39;72.70;101714.00;4831693;29;20116;-90
2021/12/18 01:22:45;;;;;;;11.65;7.30;;;;;;;6.68;72.39;101739.81;4842517;29;20113;-90
2021/12/18 01:24:49;;;;;;;11.77;7.05;;;;;;;6.61;72.47;101727.13;4857499;29;20108;-91
2021/12/18 01:27:17;;;;;;;9.90;6.95;;;;;;;6.23;72.43;101654.72;4844920;29;20043;-92
2021/12/18 01:29:48;;;;;;;10.38;6.80;;;;;;;6.22;72.66;101662.34;4851185;29;20057;-90
2021/12/18 01:32:14;;;;;;;10.30;7.18;;;;;;;6.69;72.82;101743.34;4847180;29;20140;-90
2021/12/18 01:34:39;;;;;;;;;;;;;;;6.71;72.70;101749.59;4832358;29;20495;-91
2021/12/18 01:37:13;;;;;;;9.80;6.85;;;;;;;6.30;72.38;101674.28;4842439;29;19926;-91
2021/12/18 01:39:54;;;;;;;9.65;6.63;;;;;;;6.34;72.63;101665.09;4846900;29;20076;-93
2021/12/18 01:52:18;;;;;;;10.80;6.70;;;;;;;6.48;72.18;101706.09;4859473;29;20116;-90
2021/12/18 01:55:19;;;;;;;10.70;7.10;;;;;;;6.63;72.53;101714.28;4850426;29;20040;-92
2021/12/18 01:58:14;;;;;;;11.20;6.50;;;;;;;6.66;72.28;101715.44;4867382;29;20097;-92
2021/12/18 02:00:46;;;;;;;10.48;6.68;;;;;;;6.62;72.71;101722.84;4854808;29;20092;-90
2021/12/18 02:03:12;;;;;;;13.00;7.10;;;;;;;6.67;72.26;101737.13;4825730;29;20041;-89
2021/12/18 02:05:40;;;;;;;10.40;6.75;;;;;;;6.59;72.55;101727.78;4830544;29;20563;-88
2021/12/18 02:08:35;;;;;;;10.48;6.28;;;;;;;6.27;72.24;101668.84;4830203;29;20045;-89
2021/12/18 02:21:52;;;;;;;9.95;6.18;;;;;;;6.60;72.39;101748.66;4855008;29;20064;-90
2021/12/18 02:24:19;;;;;;;11.13;6.10;;;;;;;6.49;72.64;101723.47;4847840;29;20038;-90
2021/12/18 02:26:47;;;;;;;12.48;6.43;;;;;;;6.55;72.38;101741.28;4847702;29;20037;-90
2021/12/18 02:29:46;;;;;;;10.35;6.57;;;;;;;6.65;72.41;101759.44;4857902;29;20491;-92
2021/12/18 02:32:21;;;;;;;9.68;6.32;;;;;;;6.64;72.57;101768.00;4836504;29;20079;-92
2021/12/18 02:34:56;;;;;;;9.98;6.60;;;;;;;6.52;72.36;101742.81;4854768;29;20117;-92
2021/12/18 02:37:42;;;;;;;11.02;6.47;;;;;;;6.46;72.10;101728.41;4828651;29;20094;-92
2021/12/18 02:45:59;;;;;;;10.00;5.97;;;;;;;6.51;72.53;101735.78;4859604;29;20037;-92
2021/12/18 02:48:41;;;;;;;8.77;6.15;;;;;;;6.61;72.73;101749.59;4838885;29;20025;-92
2021/12/18 02:51:29;;;;;;;8.23;5.82;;;;;;;6.62;72.78;101751.38;4832241;29;20106;-92
2021/12/18 02:54:26;;;;;;;10.70;6.30;;;;;;;6.62;72.43;101748.78;4853296;29;20517;-91
2021/12/18 02:57:19;;;;;;;9.77;6.03;;;;;;;6.63;72.42;101754.13;4850138;29;20038;-92
2021/12/18 02:59:57;;;;;;;10.57;6.65;;;;;;;6.49;72.37;101728.66;4830281;29;20120;-92
2021/12/18 03:02:36;;;;;;;8.85;6.20;;;;;;;6.60;72.38;101748.66;4820151;29;20040;-91
2021/12/18 03:05:34;;;;;;;10.27;6.05;;;;;;;6.65;72.32;101746.47;4830343;29;20029;-92
2021/12/18 03:08:31;;;;;;;10.18;6.57;;;;;;;6.37;72.41;101712.97;4827824;29;20466;-93
2021/12/18 03:20:14;;;;;;;11.90;6.40;;;;;;;6.39;72.24;101713.09;4845560;29;20519;-91
2021/12/18 03:25:08;;;;;;;11.68;6.50;;;;;;;6.56;72.49;101750.84;4850866;29;20044;-91
2021/12/18 03:27:35;;;;;;;9.45;6.03;;;;;;;6.42;72.06;101724.63;4829475;29;20030;-91
2021/12/18 03:30:10;;;;;;;10.00;6.28;;;;;;;6.63;72.17;101768.78;4825388;29;20036;-92
2021/12/18 03:32:39;;;;;;;10.25;5.90;;;;;;;6.43;72.25;101736.81;4836174;29;20057;-92
2021/12/18 03:35:30;;;;;;;8.43;5.90;;;;;;;6.63;72.29;101776.56;4844400;29;20038;-93
2021/12/18 03:38:27;;;;;;;9.27;5.95;;;;;;;6.62;72.36;101777.34;4866215;29;20101;-92
2021/12/18 03:41:12;;;;;;;9.23;5.90;;;;;;;6.59;72.15;101783.19;4813674;29;20133;-92
2021/12/18 03:43:38;;;;;;;11.30;5.88;;;;;;;6.39;72.31;101733.84;4811183;29;20053;-90
2021/12/18 03:46:50;;;;;;;9.27;5.95;;;;;;;6.65;72.19;101772.44;4821288;29;20030;-92
2021/12/18 03:50:11;;;;;;;8.68;6.00;;;;;;;6.57;72.43;101778.63;4847881;29;20121;-92
2021/12/18 03:52:47;;;;;;;8.32;5.82;;;;;;;6.42;72.55;101754.88;4826859;29;20454;-90
2021/12/18 03:55:28;;;;;;;11.80;6.03;;;;;;;6.57;72.35;101791.63;4830808;29;20025;-91
2021/12/18 03:58:04;;;;;;;10.02;5.90;;;;;;;6.34;72.01;101748.09;4812477;29;20171;-89
2021/12/18 04:00:34;;;;;;;8.73;6.22;;;;;;;6.27;72.34;101733.72;4817265;29;20029;-92
2021/12/18 04:03:04;;;;;;;9.32;5.95;;;;;;;6.27;72.26;101741.50;4827517;29;20504;-92
2021/12/18 04:05:30;;;;;;;8.43;5.82;;;;;;;6.50;72.38;101782.41;4831514;29;20021;-90
2021/12/18 04:08:08;;;;;;;9.93;6.00;;;;;;;6.47;72.00;101780.41;4817500;29;20115;-90
2021/12/18 04:10:45;;;;;;;9.25;5.90;;;;;;;6.20;72.33;101739.13;4816954;29;20038;-90
2021/12/18 04:13:12;;;;;;;9.90;5.68;;;;;;;6.35;72.29;101769.00;4841730;29;20065;-91
2021/12/18 04:15:39;;;;;;;10.32;5.97;;;;;;;6.45;72.57;101792.34;4829978;29;20029;-90
2021/12/18 04:18:05;;;;;;;;;;;;;;;6.68;72.24;101815.09;4813705;29;20124;-90
2021/12/18 04:20:31;;;;;;;8.63;5.68;;;;;;;6.43;72.45;101775.75;4829311;29;20424;-90
2021/12/18 04:22:59;;;;;;;10.57;5.82;;;;;;;6.35;72.26;101783.63;4825756;29;20126;-92
2021/12/18 04:25:34;;;;;;;9.30;5.75;;;;;;;6.48;72.49;101796.91;4809186;29;20117;-90
2021/12/18 04:28:01;;;;;;;8.27;5.80;;;;;;;6.57;72.28;101815.88;4824982;29;20037;-89
2021/12/18 04:30:35;;;;;;;9.90;5.90;;;;;;;6.37;72.46;101783.03;4823163;29;20037;-91
2021/12/18 04:33:15;;;;;;;9.70;5.90;;;;;;;6.58;72.46;101821.97;4825843;29;20091;-90
2021/12/18 04:35:44;;;;;;;8.82;5.75;;;;;;;6.42;72.71;101794.69;4837056;29;20034;-90
2021/12/18 04:38:25;;;;;;;8.95;5.50;;;;;;;6.37;72.63;101775.25;4818461;29;20034;-91
2021/12/18 04:41:00;;;;;;;9.80;5.95;;;;;;;6.27;72.67;101770.91;4822506;29;20058;-91
2021/12/18 04:43:26;;;;;;;8.30;5.53;;;;;;;6.39;72.57;101797.03;4819779;29;20025;-91
2021/12/18 04:45:55;;;;;;;8.60;5.53;;;;;;;6.58;72.39;101827.16;4827419;29;20025;-90
2021/12/18 04:48:21;;;;;;;7.90;5.22;;;;;;;6.58;72.47;101838.44;4817531;29;20036;-90
2021/12/18 04:50:57;;;;;;;8.77;6.00;;;;;;;6.32;71.90;101790.38;4832791;29;20053;-90
2021/12/18 04:53:27;;;;;;;10.05;5.80;;;;;;;6.49;72.48;101828.16;4829777;29;20037;-90
2021/12/18 04:56:22;;;;;;;8.68;5.55;;;;;;;6.56;72.49;101841.69;4835270;29;20033;-90
2021/12/18 04:58:51;;;;;;;7.55;5.05;;;;;;;6.41;72.10;101818.81;4830015;29;20040;-92
2021/12/18 05:01:39;;;;;;;9.07;5.78;;;;;;;6.58;72.36;101850.50;4829762;29;20037;-90
2021/12/18 05:04:14;;;;;;;;;;;;;;;6.55;72.83;101853.75;4831899;29;20053;-91
2021/12/18 05:06:45;;;;;;;8.43;5.50;;;;;;;6.54;72.53;101857.16;4842811;29;20406;-90
2021/12/18 05:09:19;;;;;;;7.80;5.07;;;;;;;6.37;72.51;101827.13;4823239;29;20069;-91
2021/12/18 05:11:46;;;;;;;9.88;5.90;;;;;;;6.37;72.45;101837.50;4839056;29;20132;-89
2021/12/18 05:14:17;;;;;;;8.05;5.10;;;;;;;6.19;72.41;101810.84;4829420;29;20522;-90
2021/12/18 05:16:50;;;;;;;7.53;5.60;;;;;;;6.29;72.28;101829.03;4829544;29;20129;-89
2021/12/18 05:19:15;;;;;;;7.88;5.68;;;;;;;6.18;72.31;101806.44;4831229;29;20038;-90
2021/12/18 05:21:47;;;;;;;7.90;5.55;;;;;;;6.22;72.68;101821.50;4828670;29;20037;-90
2021/12/18 05:24:28;;;;;;;9.20;5.57;;;;;;;6.56;72.66;101885.78;4845480;29;20026;-92
2021/12/18 05:26:59;;;;;;;7.55;4.97;;;;;;;6.35;72.39;101852.03;4829767;29;20043;-90
2021/12/18 05:29:28;;;;;;;9.55;5.43;;;;;;;6.44;72.64;101868.38;4844250;29;20033;-91
2021/12/18 05:32:15;;;;;;;7.00;5.30;;;;;;;6.23;72.48;101853.53;4831055;29;20045;-91
2021/12/18 05:34:45;;;;;;;7.38;5.30;;;;;;;6.52;72.52;101887.25;4833195;29;20036;-91
2021/12/18 05:37:19;;;;;;;9.95;5.60;;;;;;;6.31;72.14;101856.03;4824591;29;20049;-87
2021/12/18 05:40:00;;;;;;;8.32;5.30;;;;;;;6.55;72.45;101908.25;4835900;29;20580;-91
2021/12/18 05:42:58;;;;;;;7.63;5.25;;;;;;;6.52;72.43;101908.91;4822687;29;20040;-91
2021/12/18 05:45:26;;;;;;;8.98;5.35;;;;;;;6.51;72.52;101907.06;4813787;29;20033;-91
2021/12/18 05:48:16;;;;;;;8.02;4.90;;;;;;;6.52;72.65;101900.22;4810846;29;20046;-90
2021/12/18 05:50:53;;;;;;;7.68;5.10;;;;;;;6.25;72.48;101859.75;4828086;29;20041;-90
2021/12/18 05:53:32;;;;;;;;;;;;;;;6.53;72.52;101902.00;4818721;29;20087;-90
2021/12/18 05:55:58;;;;;;;6.88;5.10;;;;;;;6.24;72.55;101864.00;4827091;29;20413;-88
2021/12/18 05:58:23;;;;;;;6.20;4.93;;;;;;;6.28;72.73;101871.28;4860975;29;20037;-89
2021/12/18 06:00:52;;;;;;;7.13;4.70;;;;;;;6.21;72.41;101870.63;4845620;29;20136;-91
2021/12/18 06:03:48;;;;;;;8.23;5.22;;;;;;;6.52;72.68;101920.97;4818594;29;20037;-90
2021/12/18 06:06:16;;;;;;;8.52;5.28;;;;;;;6.23;72.19;101882.06;4818930;29;20074;-92
2021/12/18 06:09:12;;;;;;;7.55;5.10;;;;;;;6.51;72.56;101937.31;4811325;29;20052;-90
2021/12/18 06:11:42;;;;;;;7.78;5.07;;;;;;;6.39;72.31;101913.78;4828347;29;20405;-93
2021/12/18 06:14:44;;;;;;;7.22;5.30;;;;;;;6.53;72.45;101949.63;4809780;29;20534;-92
2021/12/18 06:17:14;;;;;;;7.43;4.68;;;;;;;6.18;72.53;101893.69;4808713;29;20116;-92
2021/12/18 06:19:59;;;;;;;7.40;4.97;;;;;;;6.50;72.31;101961.44;4807860;29;20034;-93
2021/12/18 06:22:39;;;;;;;7.38;4.75;;;;;;;6.15;72.52;101896.91;4808769;29;20034;-94
2021/12/18 06:25:23;;;;;;;7.88;5.18;;;;;;;6.30;72.79;101939.78;4805961;29;20092;-95
2021/12/18 06:28:03;;;;;;;8.85;5.22;;;;;;;6.46;72.10;101960.25;4813343;29;20454;-91
2021/12/18 06:30:52;;;;;;;6.72;4.88;;;;;;;6.49;72.69;101976.09;4813276;29;20030;-91
2021/12/18 06:33:19;;;;;;;8.65;5.45;;;;;;;6.20;72.54;101934.56;4817935;29;20101;-94
2021/12/18 06:35:48;;;;;;;7.88;5.15;;;;;;;6.41;72.64;101971.88;4804493;29;20057;-91
2021/12/18 06:38:14;;;;;;;7.65;4.90;;;;;;;6.46;72.43;101982.69;4819033;29;20188;-87
2021/12/18 06:40:43;;;;;;;8.27;5.10;;;;;;;6.34;72.61;101972.13;4851961;29;20132;-93
2021/12/18 06:43:11;;;;;;;6.88;4.65;;;;;;;6.30;72.46;101962.22;4826282;29;20575;-92
2021/12/18 06:45:37;;;;;;;7.47;4.90;;;;;;;6.42;72.68;101976.31;4826914;29;20040;-88
2021/12/18 06:48:04;;;;;;;8.68;5.00;;;;;;;6.49;72.71;101993.34;4855828;29;20033;-88
2021/12/18 06:50:46;;;;;;;;;;;;;;;6.49;72.39;101988.16;4845869;29;20047;-93
2021/12/18 06:53:28;;;;;;;8.27;4.90;;;;;;;6.23;72.46;101942.63;4853339;29;20058;-90
2021/12/18 06:55:58;;;;;;;6.82;5.00;;;;;;;6.31;72.34;101962.38;4831194;29;20042;-89
2021/12/18 06:58:32;;;;;;;6.80;4.95;;;;;;;6.40;72.40;101985.66;4828442;29;20042;-92
2021/12/18 07:01:07;;;;;;;7.60;5.00;;;;;;;6.21;72.42;101949.34;4838825;29;20030;-92
2021/12/18 07:04:08;;;;;;;7.28;4.90;;;;;;;6.48;72.57;101997.63;4834202;29;20445;-91
2021/12/18 07:06:35;;;;;;;8.18;5.10;;;;;;;6.25;72.43;101956.63;4862103;29;20029;-88
2021/12/18 07:09:02;;;;;;;7.40;5.03;;;;;;;6.17;72.55;101956.72;4829655;29;20067;-87
2021/12/18 07:11:27;;;;;;;7.63;5.35;;;;;;;6.30;72.09;101989.06;4835847;29;20045;-90
2021/12/18 07:14:03;;;;;;;7.35;4.80;;;;;;;6.35;72.35;101991.19;4836365;29;20026;-92
2021/12/18 07:16:29;;;;;;;8.88;5.03;;;;;;;6.38;72.45;102004.44;4838814;29;20044;-89
2021/12/18 07:18:55;;;;;;;9.00;5.43;;;;;;;6.27;72.30;102001.78;4833039;29;20034;-89
2021/12/18 07:21:22;;;;;;;7.80;5.60;;;;;;;6.30;72.33;101994.25;4845314;29;20034;-88
2021/12/18 07:23:49;;;;;;;7.20;5.00;;;;;;;6.20;72.52;102002.00;4839041;29;20034;-89
2021/12/18 07:26:18;;;;;;;8.60;5.13;;;;;;;6.10;72.23;101979.50;4840220;29;20022;-89
2021/12/18 07:28:45;;;;;;;8.27;5.35;;;;;;;6.45;72.39;102037.94;4843327;29;20086;-88
2021/12/18 07:31:11;;;;;;;7.75;4.90;;;;;;;6.20;72.36;101995.88;4842963;29;20026;-90
2021/12/18 07:33:41;;;;;;;7.85;4.75;;;;;;;6.24;72.25;102006.69;4826869;29;20037;-88
2021/12/18 07:36:08;;;;;;;7.32;4.75;;;;;;;6.22;72.40;102016.03;4836963;29;20033;-89
2021/12/18 07:38:38;;;;;;;6.65;4.80;;;;;;;6.27;72.55;102030.31;4816280;29;20029;-90
2021/12/18 07:41:29;;;;;;;9.82;4.93;;;;;;;6.45;72.39;102044.03;4829708;29;20049;-91
2021/12/18 07:44:01;;;;;;;8.07;5.03;;;;;;;6.40;72.56;102044.41;4835487;29;20035;-91
2021/12/18 07:46:39;;;;;;;6.20;4.72;;;;;;;6.25;72.45;102018.00;4827375;29;20033;-91
2021/12/18 07:49:08;;;;;;;7.40;5.15;;;;;;;6.45;72.63;102045.72;4826863;29;20038;-91
2021/12/18 07:51:39;;;;;;;7.80;5.15;;;;;;;6.49;72.24;102048.75;4827995;29;20393;-92
2021/12/18 07:54:17;;;;;;;8.75;5.25;;;;;;;6.47;72.25;102054.56;4830086;29;20038;-92
2021/12/18 07:56:53;;;;;;;8.05;5.05;;;;;;;6.38;72.45;102038.19;4814956;29;20054;-92
2021/12/18 07:59:24;;;;;;;8.60;5.57;;;;;;;6.32;72.37;102030.72;4830373;29;20400;-92
2021/12/18 08:02:29;;;;;;;8.23;5.05;;;;;;;6.45;72.35;102044.03;4816206;29;20062;-94
2021/12/18 08:05:05;;;;;;;9.55;5.25;;;;;;;6.41;72.54;102036.75;4831733;29;20042;-91
2021/12/18 08:07:31;;;;;;;6.77;4.83;;;;;;;6.31;72.28;102036.72;4836956;29;20512;-89
2021/12/18 08:10:04;;;;;;;6.95;5.03;;;;;;;6.36;72.53;102045.81;4828754;29;20044;-90
2021/12/18 08:12:32;;;;;;;6.80;4.97;;;;;;;6.05;72.60;102005.78;4821555;29;20030;-88
2021/12/18 08:14:58;;;;;;;7.95;5.32;;;;;;;6.22;72.87;102023.81;4836760;29;20037;-89
2021/12/18 08:17:24;;;;;;;9.20;5.25;;;;;;;6.20;72.40;102021.81;4830765;29;20419;-89
2021/12/18 08:19:51;;;;;;;8.18;5.10;;;;;;;6.31;72.48;102032.41;4827687;29;20033;-88
2021/12/18 08:22:18;;;;;;;7.72;5.32;;;;;;;6.30;72.21;102034.88;4833775;29;20499;-89
2021/12/18 08:24:45;;;;;;;7.20;5.05;;;;;;;6.42;72.52;102059.34;4816405;29;20025;-89
2021/12/18 08:27:10;;;;;;;7.93;5.00;;;;;;;6.16;72.85;102007.69;4843193;29;20033;-89
2021/12/18 08:29:37;;;;;;;8.20;4.80;;;;;;;6.07;72.66;101996.44;4832654;29;20026;-89
2021/12/18 08:32:04;;;;;;;7.22;5.00;;;;;;;6.46;72.55;102069.22;4831874;29;20038;-89
2021/12/18 08:34:30;;;;;;;7.40;4.68;;;;;;;6.31;72.73;102041.91;4822729;29;20466;-88
2021/12/18 08:36:56;;;;;;;6.32;4.43;;;;;;;6.24;72.34;102030.03;4843023;29;20033;-88
2021/12/18 08:39:21;;;;;;;8.23;4.90;;;;;;;6.08;72.73;101995.69;4844395;29;20115;-88
2021/12/18 08:41:48;;;;;;;6.53;4.80;;;;;;;6.38;72.75;102053.75;4820937;29;20051;-87
2021/12/18 08:44:14;;;;;;;8.38;5.05;;;;;;;6.47;72.62;102067.53;4827587;29;20278;-87
2021/12/18 08:46:41;;;;;;;7.65;4.80;;;;;;;5.93;72.51;101974.44;4812841;29;20034;-89
2021/12/18 08:49:07;;;;;;;7.30;4.78;;;;;;;6.43;72.78;102052.47;4834679;29;20401;-88
2021/12/18 08:51:35;;;;;;;6.82;4.50;;;;;;;6.42;72.47;102046.38;4801915;29;20680;-88
2021/12/18 08:54:01;;;;;;;7.20;4.80;;;;;;;5.77;72.25;101937.47;4807105;29;20103;-88
2021/12/18 08:56:27;;;;;;;8.38;4.78;;;;;;;6.30;72.90;102035.78;4809291;29;20034;-88
2021/12/18 08:58:53;;;;;;;8.75;4.88;;;;;;;6.27;72.59;102027.72;4807210;29;20038;-88
2021/12/18 09:01:21;;;;;;;8.40;5.07;;;;;;;6.29;72.36;102023.59;4811143;29;20041;-88
2021/12/18 09:03:48;;;;;;;7.35;4.63;;;;;;;6.46;72.79;102064.03;4834401;29;20034;-88
2021/12/18 09:06:13;;;;;;;7.22;4.90;;;;;;;6.38;72.71;102051.16;4803495;29;20026;-88
2021/12/18 09:08:40;;;;;;;7.20;4.53;;;;;;;6.48;72.31;102067.69;4810731;29;20035;-89
2021/12/18 09:11:07;;;;;;;7.70;4.78;;;;;;;6.48;72.63;102070.28;4812481;29;20039;-88
2021/12/18 09:13:32;;;;;;;8.25;5.07;;;;;;;6.20;72.50;102021.81;4825003;29;20037;-87
2021/12/18 09:15:59;;;;;;;7.07;4.82;;;;;;;6.44;72.62;102043.94;4842410;29;20036;-88
2021/12/18 09:18:25;;;;;;;7.30;4.80;;;;;;;5.94;72.54;101970.13;4808200;29;20102;-88
2021/12/18 09:20:51;;;;;;;6.32;4.70;;;;;;;6.05;72.59;101995.41;4807631;29;20030;-88
2021/12/18 09:23:18;;;;;;;;;;;;;;;6.46;72.67;102048.47;4799580;29;20034;-88
2021/12/18 09:25:46;;;;;;;6.65;4.80;;;;;;;6.15;72.52;102002.34;4813967;29;20398;-88
2021/12/18 09:28:12;;;;;;;7.28;4.70;;;;;;;6.25;72.56;102023.19;4814889;29;20030;-88
2021/12/18 09:30:39;;;;;;;6.45;4.65;;;;;;;6.24;72.75;102024.84;4825037;29;20038;-90
2021/12/18 09:33:04;;;;;;;7.20;4.85;;;;;;;6.06;72.31;101987.78;4817518;29;20200;-88
2021/12/18 09:35:34;;;;;;;7.60;4.65;;;;;;;6.30;72.63;102029.69;4819612;29;20116;-88
2021/12/18 09:38:01;;;;;;;6.90;4.70;;;;;;;6.07;72.48;101986.06;4824103;29;20035;-89
2021/12/18 09:40:29;;;;;;;7.35;4.43;;;;;;;6.08;72.54;101988.81;4808990;29;20049;-89
2021/12/18 09:42:56;;;;;;;8.18;5.25;;;;;;;6.21;72.39;102016.78;4839903;29;20048;-88
2021/12/18 09:45:23;;;;;;;6.07;4.65;;;;;;;6.09;72.79;101990.63;4835052;29;20029;-89
2021/12/18 09:47:49;;;;;;;6.60;4.68;;;;;;;6.17;72.76;101993.94;4832771;29;20120;-89
2021/12/18 09:50:18;;;;;;;8.88;4.93;;;;;;;6.45;72.51;102051.81;4812252;29;20030;-89
2021/12/18 09:52:44;;;;;;;8.48;5.07;;;;;;;6.44;72.62;102064.69;4826666;29;20042;-88
2021/12/18 09:55:10;;;;;;;8.65;4.80;;;;;;;6.32;72.54;102036.81;4812330;29;20034;-89
2021/12/18 09:57:36;;;;;;;11.50;5.78;;;;;;;6.09;72.57;101993.22;4825078;29;20038;-88
2021/12/18 10:00:08;;;;;;;7.47;5.03;;;;;;;6.35;72.40;102015.47;4835570;29;20397;-89
2021/12/18 10:02:33;;;;;;;7.18;4.50;;;;;;;6.07;72.25;101975.72;4849088;29;20416;-89
2021/12/18 10:05:00;;;;;;;7.18;4.88;;;;;;;6.03;72.40;101984.91;4877787;29;20033;-88
2021/12/18 10:08:14;;;;;;;7.57;4.60;;;;;;;6.08;72.46;101975.84;4854394;29;20487;-89
2021/12/18 10:11:04;;;;;;;8.18;4.70;;;;;;;6.01;72.32;101977.72;4829038;29;20033;-89
2021/12/18 10:13:54;;;;;;;5.45;4.25;;;;;;;6.46;72.57;102042.38;4849162;29;20042;-89
2021/12/18 10:16:24;;;;;;;7.10;4.55;;;;;;;6.05;72.57;101979.84;4832501;29;20029;-89
2021/12/18 10:19:00;;;;;;;7.03;4.85;;;;;;;6.25;72.37;102021.47;4822918;29;20049;-89
2021/12/18 10:21:30;;;;;;;7.82;4.80;;;;;;;6.22;72.63;102015.09;4841106;29;20052;-89
2021/12/18 10:23:58;;;;;;;6.78;4.72;;;;;;;5.86;72.50;101953.88;4824328;29;20034;-88
2021/12/18 10:26:38;;;;;;;6.57;4.75;;;;;;;6.30;72.63;102027.09;4825358;29;20045;-89
2021/12/18 10:29:28;;;;;;;8.73;4.68;;;;;;;6.36;72.68;102030.25;4817733;29;20479;-89
2021/12/18 10:31:54;;;;;;;6.65;4.40;;;;;;;6.45;72.49;102051.81;4858351;29;20080;-90
2021/12/18 10:34:27;;;;;;;7.32;4.88;;;;;;;5.85;72.54;101946.88;4833973;29;20561;-89
2021/12/18 10:37:14;;;;;;;9.70;4.95;;;;;;;6.46;72.40;102045.88;4829530;29;20684;-89
2021/12/18 10:39:46;;;;;;;8.10;4.90;;;;;;;6.47;72.20;102039.91;4830192;29;20074;-87
2021/12/18 10:42:22;;;;;;;7.15;4.72;;;;;;;6.45;72.63;102038.84;4864346;29;20321;-89
2021/12/18 10:45:17;;;;;;;7.93;5.03;;;;;;;6.46;72.29;102035.50;4841334;29;20030;-87
2021/12/18 10:47:45;;;;;;;6.13;4.43;;;;;;;6.42;72.47;102029.91;4827324;29;20049;-88
2021/12/18 10:50:15;;;;;;;6.15;4.47;;;;;;;6.47;72.55;102036.41;4844157;29;20026;-89
2021/12/18 10:52:43;;;;;;;7.95;4.65;;;;;;;6.09;72.02;101961.19;4838566;29;20041;-89
2021/12/18 10:55:09;;;;;;;5.47;3.95;;;;;;;5.95;72.00;101931.44;4844962;29;20038;-89
2021/12/18 10:57:35;;;;;;;7.43;4.50;;;;;;;6.29;72.19;101997.66;4830350;29;20430;-89
2021/12/18 11:00:03;;;;;;;6.75;4.40;;;;;;;6.09;72.54;101974.16;4832148;29;20041;-88
2021/12/18 11:02:43;;;;;;;6.18;4.20;;;;;;;6.19;72.18;101991.50;4816554;29;20030;-91
2021/12/18 11:05:23;;;;;;;5.85;4.40;;;;;;;6.23;72.28;101993.59;4828461;29;20070;-91
2021/12/18 11:08:19;;;;;;;6.57;4.55;;;;;;;6.50;72.47;102028.91;4836619;29;20053;-90
2021/12/18 11:13:37;;;;;;;6.20;4.40;;;;;;;6.08;72.24;101959.38;4843271;29;20034;-90
2021/12/18 11:13:45;;;;;;;6.22;4.50;;;;;;;6.31;72.25;101988.31;4838994;29;20401;-88
2021/12/18 11:16:12;;;;;;;6.03;4.15;;;;;;;6.50;72.33;102026.31;4829440;29;20033;-87
2021/12/18 11:18:40;;;;;;;5.47;4.25;;;;;;;6.33;72.19;101996.25;4817105;29;20093;-88
2021/12/18 11:21:08;;;;;;;6.38;4.38;;;;;;;6.50;72.06;102026.31;4812870;29;20066;-89
2021/12/18 11:24:04;;;;;;;9.57;4.80;;;;;;;6.47;72.27;102026.03;4829082;29;20025;-89
2021/12/18 11:26:41;;;;;;;5.93;4.35;;;;;;;6.39;72.20;102008.84;4818266;29;20109;-90
2021/12/18 11:29:21;;;;;;;7.40;4.68;;;;;;;6.35;72.56;101989.53;4827490;29;20036;-90
2021/12/18 11:31:53;;;;;;;6.93;4.50;;;;;;;6.42;72.34;102001.34;4824485;29;20060;-90
2021/12/18 11:34:19;;;;;;;5.38;4.25;;;;;;;6.40;72.30;102002.91;4839383;29;20029;-89
2021/12/18 11:37:00;;;;;;;5.68;4.30;;;;;;;6.30;72.11;102001.16;4841474;29;20026;-91
2021/12/18 11:39:30;;;;;;;5.97;4.28;;;;;;;6.15;72.04;101950.47;4817416;29;20106;-91
2021/12/18 11:45:57;;;;;;;6.30;4.15;;;;;;;6.52;72.37;102020.50;4851029;29;20049;-91
2021/12/18 11:49:02;;;;;;;6.65;4.20;;;;;;;6.40;72.03;101992.53;4828519;29;20427;-91
2021/12/18 11:51:38;;;;;;;5.63;4.00;;;;;;;6.29;72.35;101992.47;4774427;29;20110;-90
2021/12/18 11:54:43;;;;;;;7.22;4.13;;;;;;;6.57;72.05;102027.78;4817671;29;20159;-90
2021/12/18 11:57:12;;;;;;;8.57;4.30;;;;;;;6.39;71.97;101993.28;4756601;30;20032;-91
2021/12/18 11:59:43;;;;;;;5.65;3.72;;;;;;;6.32;71.60;101981.44;4829600;29;20531;-89
2021/12/18 12:02:42;;;;;;;5.88;3.85;;;;;;;6.66;71.72;102015.63;4816349;29;20037;-89
2021/12/18 12:05:09;;;;;;;5.63;4.00;;;;;;;6.57;71.85;102018.31;4822949;29;20041;-90
2021/12/18 12:07:44;;;;;;;5.25;4.03;;;;;;;6.38;71.45;101966.44;4822228;29;20030;-90
2021/12/18 12:13:05;;;;;;;8.25;3.60;;;;;;;6.49;71.52;101995.94;4802311;29;20125;-90
2021/12/18 12:15:54;;;;;;;10.63;3.97;;;;;;;6.60;71.57;102017.66;4827301;29;20129;-91
2021/12/18 12:18:26;;;;;;;5.65;3.80;;;;;;;6.51;70.91;101982.31;4819469;29;20531;-92
2021/12/18 12:20:53;;;;;;;5.10;3.88;;;;;;;6.43;71.30;101985.00;4825562;29;20045;-89
2021/12/18 12:23:20;;;;;;;8.80;4.00;;;;;;;6.23;71.53;101957.28;4830318;29;20407;-91
2021/12/18 12:26:21;;;;;;;6.82;3.78;;;;;;;6.60;71.58;102018.56;4835468;29;20030;-91
2021/12/18 12:28:53;;;;;;;5.38;3.72;;;;;;;6.53;71.33;102013.59;4841989;29;20037;-89
2021/12/18 12:31:20;;;;;;;6.28;3.90;;;;;;;6.30;71.11;101962.22;4826593;29;20114;-90
2021/12/18 12:33:51;;;;;;;4.80;3.80;;;;;;;6.44;71.31;101990.34;4841079;29;20404;-90
2021/12/18 12:36:24;;;;;;;7.82;4.18;;;;;;;6.65;71.48;102035.47;4825944;29;20030;-90
2021/12/18 12:39:02;;;;;;;4.78;3.90;;;;;;;6.53;71.21;102006.72;4844242;29;20081;-90
2021/12/18 12:41:50;;;;;;;6.85;4.35;;;;;;;6.72;71.13;102039.53;4827766;29;20034;-90
2021/12/18 12:44:35;;;;;;;6.43;4.03;;;;;;;6.74;71.00;102045.78;4831809;29;20493;-90
2021/12/18 12:47:24;;;;;;;6.43;4.15;;;;;;;6.73;71.04;102038.75;4830168;29;20030;-89
2021/12/18 12:49:55;;;;;;;5.05;3.90;;;;;;;6.52;71.07;101994.53;4833141;29;20041;-89
2021/12/18 12:52:22;;;;;;;6.57;4.40;;;;;;;6.73;71.06;102042.28;4824991;29;20120;-89
2021/12/18 12:54:58;;;;;;;5.50;3.92;;;;;;;6.71;70.90;102040.31;4838864;29;20026;-90
2021/12/18 12:57:27;;;;;;;5.60;3.90;;;;;;;6.70;71.01;102033.28;4832491;29;20038;-89
2021/12/18 12:59:59;;;;;;;6.43;4.13;;;;;;;6.70;70.96;102047.19;4829666;29;20128;-90
2021/12/18 13:02:27;;;;;;;5.70;3.97;;;;;;;6.34;70.93;101982.50;4860399;29;20029;-90